Cochranton, PA (16314)

Sagat: 3:46 AM EDT Sene: Sentýabr 04, 2015 (GMT -0400)
Cochranton PA | | Change Station
CLOSE
Current Station
Personal Weather Stations
Location: Cochranton, PA
Elevation: 1056 ft
Nearby Weather Stations

Elev 1056 ft 41.52 °N, 80.05 °W | Updated 6 minutes ago

Parçaly Bulutly
Parçaly Bulutly
67.3 ° F
Feels Like 67.3 ° F
N
0.0
Ýel Üýtgäp Durýan Ýel from Günbatar
Gusts 0.0 mps

Su Gün
High -- | Low -- ° F
--% Chance of Precip.
Yesterday
High -- | Low -- ° F
Precip. -- duým (inlis birl.)
6:49 AM 7:48 PM
Waning Gibbous, 62% visible
Basys 30.02 duým (inlis birl.)
Görüs Uzaklygy 4.0 mil
Clouds Üýtgäp Durýan Bulutly 700 ft
Üýtgäp Durýan Bulutly 2300 ft
Çyglylyk 67 ° F
Ygal 99%
Rainfall 0.00 duým (inlis birl.)
Snow Depth Not available.
UV 0 out of 12
Pollen 10.10 out of 12
Air Quality Not available.
Flu Activity Not available.
SPECI KGKJ 040659Z AUTO 28003KT 4SM BR SCT007 SCT023 20/18 A3002 RMK AO2 T02000183 TSNO
Basys 30.02 duým (inlis birl.)
Görüs Uzaklygy 4.0 mil
Clouds Üýtgäp Durýan Bulutly 700 ft
Üýtgäp Durýan Bulutly 2300 ft
Çyglylyk 67 ° F
Ygal 99%
Rainfall 0.00 duým (inlis birl.)
Snow Depth Not available.
UV 0 out of 12
Pollen 10.10 out of 12
Air Quality Not available.
Flu Activity Not available.
SPECI KGKJ 040659Z AUTO 28003KT 4SM BR SCT007 SCT023 20/18 A3002 RMK AO2 T02000183 TSNO

10-Day Weather Forecast

×

Almanac

Astronomy

Sep. 04, 2015 Rise Set
Actual Time
Civil Twilight
Nautical Twilight
Astronomical Twilight
Length Of Visible Light
Length of Day
Tomorrow will be .
, % of the Moon is Illuminated

Today's Extremes

State Highs State Lows

Community

WunderPhotos

Upload Photos

1,852,132 photos uploaded!

WunderBlogs® & News

Nearby

Air Quality

  Air Quality AQ Index Pollutant
Not available.

Gar çunlygy

Station Depth Elevation

Earthquake Activity

Säher Distance Mag. Time & Date
Minimum magnitude displayed is 2.5.

Coastal Water Temperatures

Säheri Temperatura

Stations

Nearby Weather Stations

Station Location Ýagdaý Ýelin baglylygy bilen temperatura Çyglylyk Ygal Ýel Precip. Elev Täzelendi Type